sensor_id;sensor_type;location;lat;lon;timestamp;temperature;humidity
24091;DHT22;12272;52.426;17.100;2022-10-17T00:02:10;11.20;99.90
24091;DHT22;12272;52.426;17.100;2022-10-17T00:07:13;11.30;99.90
24091;DHT22;12272;52.426;17.100;2022-10-17T00:12:15;11.30;99.90
24091;DHT22;12272;52.426;17.100;2022-10-17T00:17:18;11.40;99.90
24091;DHT22;12272;52.426;17.100;2022-10-17T00:22:21;11.40;99.90
24091;DHT22;12272;52.426;17.100;2022-10-17T00:27:23;11.70;99.90
24091;DHT22;12272;52.426;17.100;2022-10-17T00:32:26;11.80;99.90
24091;DHT22;12272;52.426;17.100;2022-10-17T00:37:31;11.80;99.90
24091;DHT22;12272;52.426;17.100;2022-10-17T00:42:34;11.80;99.90
24091;DHT22;12272;52.426;17.100;2022-10-17T00:47:36;11.80;99.90
24091;DHT22;12272;52.426;17.100;2022-10-17T00:52:39;11.90;99.90
24091;DHT22;12272;52.426;17.100;2022-10-17T00:57:43;11.90;99.90
24091;DHT22;12272;52.426;17.100;2022-10-17T01:02:47;12.00;99.90
24091;DHT22;12272;52.426;17.100;2022-10-17T01:07:52;11.90;99.90
24091;DHT22;12272;52.426;17.100;2022-10-17T01:34:36;12.30;99.90
24091;DHT22;12272;52.426;17.100;2022-10-17T01:39:54;12.40;99.90
24091;DHT22;12272;52.426;17.100;2022-10-17T01:50:14;12.60;99.90
24091;DHT22;12272;52.426;17.100;2022-10-17T01:55:21;12.60;99.90
24091;DHT22;12272;52.426;17.100;2022-10-17T02:00:26;12.50;99.90
24091;DHT22;12272;52.426;17.100;2022-10-17T02:05:36;12.50;99.90
24091;DHT22;12272;52.426;17.100;2022-10-17T02:10:46;12.30;99.90
24091;DHT22;12272;52.426;17.100;2022-10-17T02:15:57;12.40;99.90
24091;DHT22;12272;52.426;17.100;2022-10-17T02:26:43;12.20;99.90
24091;DHT22;12272;52.426;17.100;2022-10-17T02:37:01;12.50;99.90
24091;DHT22;12272;52.426;17.100;2022-10-17T02:42:09;12.40;99.90
24091;DHT22;12272;52.426;17.100;2022-10-17T02:52:41;12.40;99.90
24091;DHT22;12272;52.426;17.100;2022-10-17T02:57:56;12.50;99.90
24091;DHT22;12272;52.426;17.100;2022-10-17T03:03:00;12.40;99.90
24091;DHT22;12272;52.426;17.100;2022-10-17T03:08:02;12.50;99.90
24091;DHT22;12272;52.426;17.100;2022-10-17T03:13:05;12.60;99.90
24091;DHT22;12272;52.426;17.100;2022-10-17T03:18:11;12.40;99.90
24091;DHT22;12272;52.426;17.100;2022-10-17T03:23:14;12.30;99.90
24091;DHT22;12272;52.426;17.100;2022-10-17T03:28:17;12.10;99.90
24091;DHT22;12272;52.426;17.100;2022-10-17T03:33:19;12.00;99.90
24091;DHT22;12272;52.426;17.100;2022-10-17T03:38:22;11.90;99.90
24091;DHT22;12272;52.426;17.100;2022-10-17T03:43:25;11.90;99.90
24091;DHT22;12272;52.426;17.100;2022-10-17T03:48:28;11.90;99.90
24091;DHT22;12272;52.426;17.100;2022-10-17T03:53:32;11.90;99.90
24091;DHT22;12272;52.426;17.100;2022-10-17T03:58:34;11.50;99.90
24091;DHT22;12272;52.426;17.100;2022-10-17T04:03:38;11.60;99.90
24091;DHT22;12272;52.426;17.100;2022-10-17T04:08:40;11.40;99.90
24091;DHT22;12272;52.426;17.100;2022-10-17T04:13:54;11.30;99.90
24091;DHT22;12272;52.426;17.100;2022-10-17T04:18:59;11.10;99.90
24091;DHT22;12272;52.426;17.100;2022-10-17T04:24:05;10.90;99.90
24091;DHT22;12272;52.426;17.100;2022-10-17T04:29:20;10.90;99.90
24091;DHT22;12272;52.426;17.100;2022-10-17T04:34:25;10.80;99.90
24091;DHT22;12272;52.426;17.100;2022-10-17T04:39:28;10.80;99.90
24091;DHT22;12272;52.426;17.100;2022-10-17T04:44:32;11.00;99.90
24091;DHT22;12272;52.426;17.100;2022-10-17T04:49:36;10.80;99.90
24091;DHT22;12272;52.426;17.100;2022-10-17T04:54:44;10.90;99.90
24091;DHT22;12272;52.426;17.100;2022-10-17T04:59:48;10.70;99.90
24091;DHT22;12272;52.426;17.100;2022-10-17T05:05:02;10.90;99.90
24091;DHT22;12272;52.426;17.100;2022-10-17T05:10:05;10.60;99.90
24091;DHT22;12272;52.426;17.100;2022-10-17T05:15:08;10.40;99.90
24091;DHT22;12272;52.426;17.100;2022-10-17T05:20:11;10.40;99.90
24091;DHT22;12272;52.426;17.100;2022-10-17T05:25:14;10.40;99.90
24091;DHT22;12272;52.426;17.100;2022-10-17T05:30:18;10.40;99.90
24091;DHT22;12272;52.426;17.100;2022-10-17T05:35:23;10.40;99.90
24091;DHT22;12272;52.426;17.100;2022-10-17T05:40:27;10.30;99.90
24091;DHT22;12272;52.426;17.100;2022-10-17T05:45:30;10.40;99.90
24091;DHT22;12272;52.426;17.100;2022-10-17T05:50:33;10.20;99.90
24091;DHT22;12272;52.426;17.100;2022-10-17T05:55:43;10.40;99.90
24091;DHT22;12272;52.426;17.100;2022-10-17T06:00:46;10.50;99.90
24091;DHT22;12272;52.426;17.100;2022-10-17T06:05:50;10.40;99.90
24091;DHT22;12272;52.426;17.100;2022-10-17T06:10:53;10.40;99.90
24091;DHT22;12272;52.426;17.100;2022-10-17T06:15:56;11.40;99.90
24091;DHT22;12272;52.426;17.100;2022-10-17T06:21:04;11.10;99.90
24091;DHT22;12272;52.426;17.100;2022-10-17T06:26:08;11.00;99.90
24091;DHT22;12272;52.426;17.100;2022-10-17T06:31:15;11.10;99.90
24091;DHT22;12272;52.426;17.100;2022-10-17T06:36:17;11.10;99.90
24091;DHT22;12272;52.426;17.100;2022-10-17T06:41:21;11.30;99.90
24091;DHT22;12272;52.426;17.100;2022-10-17T06:46:28;11.60;99.90
24091;DHT22;12272;52.426;17.100;2022-10-17T06:51:35;12.00;99.90
24091;DHT22;12272;52.426;17.100;2022-10-17T06:56:41;12.20;99.90
24091;DHT22;12272;52.426;17.100;2022-10-17T07:02:02;12.40;99.90
24091;DHT22;12272;52.426;17.100;2022-10-17T07:07:05;12.60;99.90
24091;DHT22;12272;52.426;17.100;2022-10-17T07:12:08;12.90;99.90
24091;DHT22;12272;52.426;17.100;2022-10-17T07:17:17;12.90;99.90
24091;DHT22;12272;52.426;17.100;2022-10-17T07:22:21;13.10;99.90
24091;DHT22;12272;52.426;17.100;2022-10-17T07:32:30;13.50;99.90
24091;DHT22;12272;52.426;17.100;2022-10-17T07:37:33;13.50;99.90
24091;DHT22;12272;52.426;17.100;2022-10-17T07:42:37;13.60;99.90
24091;DHT22;12272;52.426;17.100;2022-10-17T07:52:45;14.20;99.90
24091;DHT22;12272;52.426;17.100;2022-10-17T07:57:47;14.50;99.90
24091;DHT22;12272;52.426;17.100;2022-10-17T08:02:50;14.70;99.90
24091;DHT22;12272;52.426;17.100;2022-10-17T08:07:52;14.80;99.90
24091;DHT22;12272;52.426;17.100;2022-10-17T08:12:56;14.90;99.90
24091;DHT22;12272;52.426;17.100;2022-10-17T08:17:59;15.60;99.90
24091;DHT22;12272;52.426;17.100;2022-10-17T08:23:01;15.50;99.90
24091;DHT22;12272;52.426;17.100;2022-10-17T08:28:04;15.40;99.90
24091;DHT22;12272;52.426;17.100;2022-10-17T08:33:12;15.70;99.90
24091;DHT22;12272;52.426;17.100;2022-10-17T08:38:15;16.20;99.90
24091;DHT22;12272;52.426;17.100;2022-10-17T08:49:40;16.40;99.90
24091;DHT22;12272;52.426;17.100;2022-10-17T08:54:46;16.70;99.90
24091;DHT22;12272;52.426;17.100;2022-10-17T08:59:51;16.60;99.90
24091;DHT22;12272;52.426;17.100;2022-10-17T09:15:56;17.70;99.90
24091;DHT22;12272;52.426;17.100;2022-10-17T09:21:24;17.80;99.90
24091;DHT22;12272;52.426;17.100;2022-10-17T09:26:28;18.10;99.90
24091;DHT22;12272;52.426;17.100;2022-10-17T09:31:41;18.30;99.90
24091;DHT22;12272;52.426;17.100;2022-10-17T09:36:46;18.30;99.90
24091;DHT22;12272;52.426;17.100;2022-10-17T09:41:59;18.60;99.90
24091;DHT22;12272;52.426;17.100;2022-10-17T09:47:23;18.70;99.90
24091;DHT22;12272;52.426;17.100;2022-10-17T09:52:32;19.00;99.90
24091;DHT22;12272;52.426;17.100;2022-10-17T09:57:56;19.30;99.90
24091;DHT22;12272;52.426;17.100;2022-10-17T10:03:09;19.40;99.90
24091;DHT22;12272;52.426;17.100;2022-10-17T10:08:16;19.60;99.90
24091;DHT22;12272;52.426;17.100;2022-10-17T10:13:20;19.70;99.90
24091;DHT22;12272;52.426;17.100;2022-10-17T10:18:30;19.80;99.90
24091;DHT22;12272;52.426;17.100;2022-10-17T10:23:36;19.90;99.90
24091;DHT22;12272;52.426;17.100;2022-10-17T10:28:55;20.00;99.90
24091;DHT22;12272;52.426;17.100;2022-10-17T10:34:01;20.10;99.90
24091;DHT22;12272;52.426;17.100;2022-10-17T10:39:05;20.20;99.90
24091;DHT22;12272;52.426;17.100;2022-10-17T10:44:13;20.30;99.90
24091;DHT22;12272;52.426;17.100;2022-10-17T10:49:29;20.30;99.90
24091;DHT22;12272;52.426;17.100;2022-10-17T10:54:36;20.40;99.90
24091;DHT22;12272;52.426;17.100;2022-10-17T11:00:02;20.50;99.90
24091;DHT22;12272;52.426;17.100;2022-10-17T11:11:13;20.60;99.90
24091;DHT22;12272;52.426;17.100;2022-10-17T11:16:17;20.40;99.90
24091;DHT22;12272;52.426;17.100;2022-10-17T11:27:02;20.40;99.90
24091;DHT22;12272;52.426;17.100;2022-10-17T11:32:30;20.80;99.90
24091;DHT22;12272;52.426;17.100;2022-10-17T11:37:37;21.00;99.90
24091;DHT22;12272;52.426;17.100;2022-10-17T11:43:15;21.30;99.90
24091;DHT22;12272;52.426;17.100;2022-10-17T11:48:30;21.10;99.90
24091;DHT22;12272;52.426;17.100;2022-10-17T11:53:56;21.10;99.90
24091;DHT22;12272;52.426;17.100;2022-10-17T12:25:28;21.50;99.90
24091;DHT22;12272;52.426;17.100;2022-10-17T12:30:33;21.60;99.90
24091;DHT22;12272;52.426;17.100;2022-10-17T12:35:37;21.70;99.90
24091;DHT22;12272;52.426;17.100;2022-10-17T12:46:00;22.60;99.90
24091;DHT22;12272;52.426;17.100;2022-10-17T12:56:45;22.70;99.90
24091;DHT22;12272;52.426;17.100;2022-10-17T13:01:52;22.50;99.90
24091;DHT22;12272;52.426;17.100;2022-10-17T13:06:57;22.30;99.90
24091;DHT22;12272;52.426;17.100;2022-10-17T13:12:04;22.30;99.90
24091;DHT22;12272;52.426;17.100;2022-10-17T13:17:24;22.40;99.90
24091;DHT22;12272;52.426;17.100;2022-10-17T13:22:29;22.20;99.90
24091;DHT22;12272;52.426;17.100;2022-10-17T13:27:34;22.10;99.90
24091;DHT22;12272;52.426;17.100;2022-10-17T13:32:38;22.00;99.90
24091;DHT22;12272;52.426;17.100;2022-10-17T13:37:46;21.70;99.90
24091;DHT22;12272;52.426;17.100;2022-10-17T13:42:56;21.70;99.90
24091;DHT22;12272;52.426;17.100;2022-10-17T13:48:03;21.90;99.90
24091;DHT22;12272;52.426;17.100;2022-10-17T13:53:11;21.70;99.90
24091;DHT22;12272;52.426;17.100;2022-10-17T13:58:16;21.70;99.90
24091;DHT22;12272;52.426;17.100;2022-10-17T14:03:20;21.60;99.90
24091;DHT22;12272;52.426;17.100;2022-10-17T14:08:23;21.60;99.90
24091;DHT22;12272;52.426;17.100;2022-10-17T14:13:28;21.50;99.90
24091;DHT22;12272;52.426;17.100;2022-10-17T14:18:34;21.80;99.90
24091;DHT22;12272;52.426;17.100;2022-10-17T14:23:42;21.60;99.90
24091;DHT22;12272;52.426;17.100;2022-10-17T14:28:47;21.20;99.90
24091;DHT22;12272;52.426;17.100;2022-10-17T14:33:51;21.00;99.90
24091;DHT22;12272;52.426;17.100;2022-10-17T14:38:54;20.90;99.90
24091;DHT22;12272;52.426;17.100;2022-10-17T14:44:00;20.80;99.90
24091;DHT22;12272;52.426;17.100;2022-10-17T14:49:06;20.70;99.90
24091;DHT22;12272;52.426;17.100;2022-10-17T14:54:20;20.70;99.90
24091;DHT22;12272;52.426;17.100;2022-10-17T14:59:23;20.50;99.90
24091;DHT22;12272;52.426;17.100;2022-10-17T15:04:46;20.30;99.90
24091;DHT22;12272;52.426;17.100;2022-10-17T15:09:51;20.20;99.90
24091;DHT22;12272;52.426;17.100;2022-10-17T15:14:53;20.10;99.90
24091;DHT22;12272;52.426;17.100;2022-10-17T15:19:56;19.90;99.90
24091;DHT22;12272;52.426;17.100;2022-10-17T15:24:59;19.70;99.90
24091;DHT22;12272;52.426;17.100;2022-10-17T15:30:02;19.60;99.90
24091;DHT22;12272;52.426;17.100;2022-10-17T15:35:05;19.50;99.90
24091;DHT22;12272;52.426;17.100;2022-10-17T15:40:28;19.40;99.90
24091;DHT22;12272;52.426;17.100;2022-10-17T15:45:32;19.20;99.90
24091;DHT22;12272;52.426;17.100;2022-10-17T15:50:35;18.90;99.90
24091;DHT22;12272;52.426;17.100;2022-10-17T15:55:37;18.70;99.90
24091;DHT22;12272;52.426;17.100;2022-10-17T16:00:39;18.50;99.90
24091;DHT22;12272;52.426;17.100;2022-10-17T16:05:45;18.30;99.90
24091;DHT22;12272;52.426;17.100;2022-10-17T16:10:54;18.20;99.90
24091;DHT22;12272;52.426;17.100;2022-10-17T16:15:57;17.90;99.90
24091;DHT22;12272;52.426;17.100;2022-10-17T16:21:00;17.80;99.90
24091;DHT22;12272;52.426;17.100;2022-10-17T16:26:02;17.60;99.90
24091;DHT22;12272;52.426;17.100;2022-10-17T16:36:20;17.30;99.90
24091;DHT22;12272;52.426;17.100;2022-10-17T16:46:28;17.10;99.90
24091;DHT22;12272;52.426;17.100;2022-10-17T16:51:31;17.10;99.90
24091;DHT22;12272;52.426;17.100;2022-10-17T16:56:36;17.10;99.90
24091;DHT22;12272;52.426;17.100;2022-10-17T17:01:39;17.00;99.90
24091;DHT22;12272;52.426;17.100;2022-10-17T17:06:41;16.80;99.90
24091;DHT22;12272;52.426;17.100;2022-10-17T17:11:44;16.70;99.90
24091;DHT22;12272;52.426;17.100;2022-10-17T17:16:46;16.50;99.90
24091;DHT22;12272;52.426;17.100;2022-10-17T17:21:49;16.30;99.90
24091;DHT22;12272;52.426;17.100;2022-10-17T17:26:53;16.10;99.90
24091;DHT22;12272;52.426;17.100;2022-10-17T17:31:56;16.00;99.90
24091;DHT22;12272;52.426;17.100;2022-10-17T17:36:59;15.80;99.90
24091;DHT22;12272;52.426;17.100;2022-10-17T17:42:01;15.60;99.90
24091;DHT22;12272;52.426;17.100;2022-10-17T17:47:04;15.50;99.90
24091;DHT22;12272;52.426;17.100;2022-10-17T17:52:06;15.30;99.90
24091;DHT22;12272;52.426;17.100;2022-10-17T17:57:09;15.30;99.90
24091;DHT22;12272;52.426;17.100;2022-10-17T18:02:11;15.40;99.90
24091;DHT22;12272;52.426;17.100;2022-10-17T18:07:14;14.80;99.90
24091;DHT22;12272;52.426;17.100;2022-10-17T18:12:16;14.50;99.90
24091;DHT22;12272;52.426;17.100;2022-10-17T18:17:19;14.10;99.90
24091;DHT22;12272;52.426;17.100;2022-10-17T18:22:21;13.80;99.90
24091;DHT22;12272;52.426;17.100;2022-10-17T18:27:26;13.50;99.90
24091;DHT22;12272;52.426;17.100;2022-10-17T18:32:30;13.50;99.90
24091;DHT22;12272;52.426;17.100;2022-10-17T18:37:33;13.40;99.90
24091;DHT22;12272;52.426;17.100;2022-10-17T18:47:43;13.30;99.90
24091;DHT22;12272;52.426;17.100;2022-10-17T18:52:47;13.10;99.90
24091;DHT22;12272;52.426;17.100;2022-10-17T18:57:49;12.90;99.90
24091;DHT22;12272;52.426;17.100;2022-10-17T19:02:52;12.60;99.90
24091;DHT22;12272;52.426;17.100;2022-10-17T19:07:54;12.40;99.90
24091;DHT22;12272;52.426;17.100;2022-10-17T19:12:57;12.40;99.90
24091;DHT22;12272;52.426;17.100;2022-10-17T19:17:59;12.50;99.90
24091;DHT22;12272;52.426;17.100;2022-10-17T19:23:02;12.50;99.90
24091;DHT22;12272;52.426;17.100;2022-10-17T19:28:04;12.90;99.90
24091;DHT22;12272;52.426;17.100;2022-10-17T19:33:07;13.20;99.90
24091;DHT22;12272;52.426;17.100;2022-10-17T19:38:09;13.50;99.90
24091;DHT22;12272;52.426;17.100;2022-10-17T19:43:12;13.60;99.90
24091;DHT22;12272;52.426;17.100;2022-10-17T19:48:14;13.80;99.90
24091;DHT22;12272;52.426;17.100;2022-10-17T19:53:17;13.90;99.90
24091;DHT22;12272;52.426;17.100;2022-10-17T19:58:20;13.90;99.90
24091;DHT22;12272;52.426;17.100;2022-10-17T20:03:24;13.90;99.90
24091;DHT22;12272;52.426;17.100;2022-10-17T20:08:26;13.80;99.90
24091;DHT22;12272;52.426;17.100;2022-10-17T20:13:29;13.90;99.90
24091;DHT22;12272;52.426;17.100;2022-10-17T20:18:32;14.00;99.90
24091;DHT22;12272;52.426;17.100;2022-10-17T20:23:35;14.10;99.90
24091;DHT22;12272;52.426;17.100;2022-10-17T20:28:38;14.10;99.90
24091;DHT22;12272;52.426;17.100;2022-10-17T20:33:40;13.90;99.90
24091;DHT22;12272;52.426;17.100;2022-10-17T20:38:43;13.80;99.90
24091;DHT22;12272;52.426;17.100;2022-10-17T20:43:45;13.70;99.90
24091;DHT22;12272;52.426;17.100;2022-10-17T20:48:52;13.90;99.90
24091;DHT22;12272;52.426;17.100;2022-10-17T20:53:55;14.10;99.90
24091;DHT22;12272;52.426;17.100;2022-10-17T20:59:05;13.80;99.90
24091;DHT22;12272;52.426;17.100;2022-10-17T21:04:08;13.80;99.90
24091;DHT22;12272;52.426;17.100;2022-10-17T21:09:31;13.60;99.90
24091;DHT22;12272;52.426;17.100;2022-10-17T21:14:34;13.50;99.90
24091;DHT22;12272;52.426;17.100;2022-10-17T21:19:37;13.50;99.90
24091;DHT22;12272;52.426;17.100;2022-10-17T21:24:39;13.20;99.90
24091;DHT22;12272;52.426;17.100;2022-10-17T21:29:42;13.10;99.90
24091;DHT22;12272;52.426;17.100;2022-10-17T21:34:45;13.00;99.90
24091;DHT22;12272;52.426;17.100;2022-10-17T21:39:47;13.00;99.90
24091;DHT22;12272;52.426;17.100;2022-10-17T21:44:49;13.10;99.90
24091;DHT22;12272;52.426;17.100;2022-10-17T21:49:52;13.20;99.90
24091;DHT22;12272;52.426;17.100;2022-10-17T21:54:54;13.20;99.90
24091;DHT22;12272;52.426;17.100;2022-10-17T21:59:56;13.10;99.90
24091;DHT22;12272;52.426;17.100;2022-10-17T22:04:59;13.00;99.90
24091;DHT22;12272;52.426;17.100;2022-10-17T22:10:02;13.00;99.90
24091;DHT22;12272;52.426;17.100;2022-10-17T22:15:05;13.00;99.90
24091;DHT22;12272;52.426;17.100;2022-10-17T22:20:08;13.00;99.90
24091;DHT22;12272;52.426;17.100;2022-10-17T22:25:10;13.00;99.90
24091;DHT22;12272;52.426;17.100;2022-10-17T22:30:13;13.00;99.90
24091;DHT22;12272;52.426;17.100;2022-10-17T22:35:15;13.00;99.90
24091;DHT22;12272;52.426;17.100;2022-10-17T22:40:18;13.00;99.90
24091;DHT22;12272;52.426;17.100;2022-10-17T22:45:20;12.80;99.90
24091;DHT22;12272;52.426;17.100;2022-10-17T22:50:23;12.80;99.90
24091;DHT22;12272;52.426;17.100;2022-10-17T22:55:26;12.60;99.90
24091;DHT22;12272;52.426;17.100;2022-10-17T23:00:28;12.50;99.90
24091;DHT22;12272;52.426;17.100;2022-10-17T23:05:31;12.50;99.90
24091;DHT22;12272;52.426;17.100;2022-10-17T23:10:33;12.50;99.90
24091;DHT22;12272;52.426;17.100;2022-10-17T23:15:36;12.40;99.90
24091;DHT22;12272;52.426;17.100;2022-10-17T23:20:39;12.40;99.90
24091;DHT22;12272;52.426;17.100;2022-10-17T23:25:41;12.30;99.90
24091;DHT22;12272;52.426;17.100;2022-10-17T23:30:44;12.20;99.90
24091;DHT22;12272;52.426;17.100;2022-10-17T23:35:47;12.10;99.90
24091;DHT22;12272;52.426;17.100;2022-10-17T23:40:49;12.10;99.90
24091;DHT22;12272;52.426;17.100;2022-10-17T23:45:52;12.00;99.90
24091;DHT22;12272;52.426;17.100;2022-10-17T23:50:55;12.10;99.90
24091;DHT22;12272;52.426;17.100;2022-10-17T23:55:57;12.00;99.90
